»·PEaware :: N973SE KSBP-KOXR

N973SE :: KSBP-KOXR

FLIGHT INFORMATION

Flight Status: Arrived
Operator: Privately registered:
United States
More flights under this callsign
Pilot: Stig E. (4778)
Aircraft: CESSNA 310
(C310)
More flights by this aircraft type
Origin: KSBP San Luis Co Regl
United States
Destination: KOXR Oxnard
United States
More flights between these airports :: More routes between these airports
Route: MISHI FLW GMN V299 FIM NELLY
File this flight plan on PilotEdge
Remarks:
Altitude:
(Current/Filed)
11,500ft
Speed:
(Current/Filed)
170kts
Departed: 28-Jan-19 12:23 AM
Arrived: 28-Jan-19 01:13 AM
Distance/Time
Traveled:
95nm/0:50
Distance/Time
To Go:
Arrived

Flight Plot

Page will automatically refresh every two minutes.

Flight plan parsing failed; only flown route is shown


Map Options




Map Legend


Flown Route
Filed Route
Departure Airport
Arrival Airport
Navaid (VOR, NDB)
Fix

Horizontal Profiles

Position Reports

Time Latitude Longitude Heading Altitude Ground
Speed
28-Jan-19 00:13 35.238241 -120.639983 308 215ft 0kts
28-Jan-19 00:14 35.238241 -120.639983 308 216ft 0kts
28-Jan-19 00:15 35.238241 -120.639983 308 216ft 0kts
28-Jan-19 00:16 35.238241 -120.639983 308 216ft 0kts
28-Jan-19 00:17 35.238241 -120.639983 308 216ft 0kts
28-Jan-19 00:18 35.238241 -120.639983 308 216ft 0kts
28-Jan-19 00:19 35.238308 -120.640088 308 215ft 4kts
28-Jan-19 00:20 35.236048 -120.636854 124 216ft 21kts
28-Jan-19 00:21 35.233152 -120.632356 224 215ft 0kts
28-Jan-19 00:22 35.234153 -120.635464 304 216ft 74kts
28-Jan-19 00:23 35.247061 -120.674905 242 1127ft 162kts
28-Jan-19 00:25 35.208352 -120.693910 139 2142ft 163kts
28-Jan-19 00:26 35.194940 -120.641901 102 3153ft 163kts
28-Jan-19 00:27 35.191485 -120.586289 92 4160ft 164kts
28-Jan-19 00:28 35.174349 -120.534732 121 5165ft 167kts
28-Jan-19 00:29 35.147470 -120.487622 123 6173ft 169kts
28-Jan-19 00:30 35.125534 -120.437722 97 7182ft 167kts
28-Jan-19 00:31 35.128235 -120.382042 86 8193ft 167kts
28-Jan-19 00:32 35.125524 -120.324446 91 9204ft 170kts
28-Jan-19 00:33 35.121604 -120.266034 91 10215ft 173kts
28-Jan-19 00:34 35.117534 -120.206528 91 11224ft 177kts
28-Jan-19 00:35 35.113065 -120.141608 91 11504ft 207kts
28-Jan-19 00:36 35.108059 -120.069274 91 11501ft 216kts
28-Jan-19 00:37 35.103207 -119.995351 91 11501ft 218kts
28-Jan-19 00:38 35.098046 -119.921358 92 11501ft 218kts
28-Jan-19 00:39 35.089102 -119.849449 106 11501ft 212kts
28-Jan-19 00:40 35.069976 -119.782148 106 11501ft 207kts
28-Jan-19 00:41 35.051096 -119.715577 106 11512ft 206kts
28-Jan-19 00:42 35.032258 -119.649254 106 11531ft 206kts
28-Jan-19 00:42 35.016555 -119.594080 106 11540ft 206kts
28-Jan-19 00:44 34.994585 -119.517073 106 11546ft 205kts
28-Jan-19 00:45 34.975733 -119.451165 106 11545ft 205kts
28-Jan-19 00:45 34.959984 -119.396226 106 11549ft 204kts
28-Jan-19 00:46 34.941119 -119.330559 107 11559ft 204kts
28-Jan-19 00:48 34.919178 -119.254383 107 11574ft 203kts
28-Jan-19 00:49 34.900404 -119.189359 107 11574ft 203kts
28-Jan-19 00:49 34.884659 -119.134938 107 11572ft 202kts
28-Jan-19 00:50 34.865850 -119.070072 107 11565ft 202kts
28-Jan-19 00:52 34.843878 -118.994517 107 11560ft 202kts
28-Jan-19 00:52 34.828169 -118.940604 107 11566ft 203kts
28-Jan-19 00:53 34.809367 -118.875131 100 11579ft 204kts
28-Jan-19 00:54 34.760984 -118.859491 189 11584ft 208kts
28-Jan-19 00:55 34.704156 -118.865042 184 11559ft 190kts
28-Jan-19 00:56 34.650149 -118.867958 183 10761ft 197kts
28-Jan-19 00:57 34.595268 -118.870509 183 9960ft 196kts
28-Jan-19 00:58 34.540944 -118.873004 184 9159ft 194kts
28-Jan-19 00:59 34.487357 -118.875388 184 8358ft 191kts
28-Jan-19 01:00 34.434378 -118.877749 184 7557ft 189kts
28-Jan-19 01:01 34.381940 -118.880080 183 6755ft 187kts
28-Jan-19 01:02 34.334591 -118.898204 214 5934ft 180kts
28-Jan-19 01:03 34.292954 -118.930403 214 4934ft 176kts
28-Jan-19 01:04 34.251829 -118.962267 214 3930ft 174kts
28-Jan-19 01:05 34.211850 -118.993048 214 3203ft 156kts
28-Jan-19 01:06 34.198561 -119.027437 272 2833ft 109kts
28-Jan-19 01:07 34.199072 -119.064672 272 2267ft 112kts
28-Jan-19 01:08 34.199531 -119.101557 273 1664ft 107kts
28-Jan-19 01:09 34.199966 -119.137696 273 1079ft 107kts
28-Jan-19 01:10 34.200382 -119.173647 273 505ft 102kts
28-Jan-19 01:11 34.200791 -119.203325 271 42ft 53kts
28-Jan-19 01:12 34.199810 -119.206445 90 39ft 8kts
28-Jan-19 01:13 34.199796 -119.201635 91 43ft 20kts
28-Jan-19 01:14 34.198413 -119.199419 93 44ft 0kts
28-Jan-19 01:15 34.198413 -119.199419 93 44ft 0kts
28-Jan-19 01:16 34.198413 -119.199419 93 44ft 0kts
28-Jan-19 01:17 34.198413 -119.199419 93 44ft 0kts
28-Jan-19 01:18 34.198413 -119.199419 93 44ft 0kts
28-Jan-19 01:19 34.198413 -119.199419 93 44ft 0kts
28-Jan-19 01:20 34.198413 -119.199419 93 44ft 0kts
28-Jan-19 01:21 34.198413 -119.199419 93 44ft 0kts
28-Jan-19 01:22 34.198413 -119.199419 93 44ft 0kts
28-Jan-19 01:23 34.198413 -119.199419 93 44ft 0kts
28-Jan-19 01:24 34.198413 -119.199419 93 44ft 0kts
28-Jan-19 01:25 34.198413 -119.199419 93 44ft 0kts
28-Jan-19 01:26 34.198413 -119.199419 93 44ft 0kts

Navigation Log

Ident Type
Flight plan parsing failed, navigation log unavailable